Lascaux — LXUU — position and weather

sailwx.info

Track history (hours):
 
Tides and Currents Weather Stations Pressure Air Temp Water Temp Dewpoint Dewpoint Depression Visibility Wind Speed Wind Dir Waves Ship Positions

Lascaux

Last reported at 2017-Sep-21 00:59 UTC. Time now 2017-Sep-22 00:50 UTC.
Position N 16°14' W 061°33'.

Length 120 m; draft 7.3 m.

Type: Tanker. MMSI: 253218000.

Date/timePositionNaut miles runAvg speedWind from/ knotsBaromVisibWave heightAir tempDewpointWater temp
2017-Sep-21 00:59N 16°14' W 061°33'  
2017-Sep-18 05:21N 15°32' W 061°43'412.0
2017-Sep-18 05:00N 15°36' W 061°41'612.1
2017-Sep-18 04:30N 15°40' W 061°37'2810.6
2017-Sep-18 01:50N 16°08' W 061°30'3 8.6
2017-Sep-18 01:26N 16°10' W 061°33'4 8.1
2017-Sep-18 00:56N 16°14' W 061°33'0 0.2
2017-Sep-18 00:30N 16°14' W 061°33'0 0.0
2017-Sep-17 14:54N 16°14' W 061°33'0 0.2
2017-Sep-17 14:30N 16°14' W 061°33'2 0.5
2017-Sep-17 11:22N 16°12' W 061°32'0 0.0
2017-Sep-17 10:49N 16°12' W 061°32'0 0.0
2017-Sep-17 10:28N 16°12' W 061°32'0 0.0
2017-Sep-17 09:55N 16°12' W 061°32'0 0.0
2017-Sep-17 09:28N 16°12' W 061°32'0 0.0
2017-Sep-17 08:58N 16°12' W 061°32'0 0.0
2017-Sep-17 08:28N 16°12' W 061°32'0 0.0
2017-Sep-17 07:52N 16°12' W 061°32'0 0.0
2017-Sep-17 07:22N 16°12' W 061°32'0 0.0
2017-Sep-17 06:37N 16°12' W 061°32'0 0.0
2017-Sep-17 06:28N 16°12' W 061°32'0 0.0
2017-Sep-17 05:58N 16°12' W 061°32'0 0.0
2017-Sep-17 05:25N 16°12' W 061°32'0 0.0
2017-Sep-17 04:58N 16°12' W 061°32'0 0.0
2017-Sep-17 04:28N 16°12' W 061°32'0 0.0
2017-Sep-17 03:58N 16°12' W 061°32'0 0.0
2017-Sep-17 03:28N 16°12' W 061°32'0 0.0
2017-Sep-17 01:43N 16°12' W 061°32'0 0.0
2017-Sep-17 01:25N 16°12' W 061°32'0 0.0
2017-Sep-17 00:58N 16°12' W 061°32'0 0.0
2017-Sep-16 10:43N 16°12' W 061°32'0 0.0
2017-Sep-16 10:22N 16°12' W 061°32'0 0.0
2017-Sep-16 06:22N 16°12' W 061°32'0 0.0
2017-Sep-16 05:37N 16°12' W 061°32'0 0.0
2017-Sep-16 05:25N 16°12' W 061°32'0 0.0
2017-Sep-15 08:47N 16°12' W 061°32'0 0.2
2017-Sep-15 08:30N 16°12' W 061°32'3 6.1
2017-Sep-15 08:00N 16°09' W 061°32'8511.3
2017-Sep-15 00:29N 14°45' W 061°26'612.2
2017-Sep-15 00:00N 14°39' W 061°26'612.5
2017-Sep-14 23:29N 14°32' W 061°26'  
Track history (hours):
 
Tides and Currents Weather Stations Pressure Air Temp Water Temp Dewpoint Dewpoint Depression Visibility Wind Speed Wind Dir Waves Ship Positions

Lascaux

Last reported at 2017-Sep-21 00:59 UTC. Time now 2017-Sep-22 00:50 UTC.
Position N 16°14' W 061°33'.

Length 120 m; draft 7.3 m.

Type: Tanker. MMSI: 253218000.

Date/timePositionNaut miles runAvg speedWind from/ knotsBaromVisibWave heightAir tempDewpointWater temp
2017-Sep-21 00:59N 16°14' W 061°33'  
2017-Sep-18 05:21N 15°32' W 061°43'412.0
2017-Sep-18 05:00N 15°36' W 061°41'612.1
2017-Sep-18 04:30N 15°40' W 061°37'2810.6
2017-Sep-18 01:50N 16°08' W 061°30'3 8.6
2017-Sep-18 01:26N 16°10' W 061°33'4 8.1
2017-Sep-18 00:56N 16°14' W 061°33'0 0.2
2017-Sep-18 00:30N 16°14' W 061°33'0 0.0
2017-Sep-17 14:54N 16°14' W 061°33'0 0.2
2017-Sep-17 14:30N 16°14' W 061°33'2 0.5
2017-Sep-17 11:22N 16°12' W 061°32'0 0.0
2017-Sep-17 10:49N 16°12' W 061°32'0 0.0
2017-Sep-17 10:28N 16°12' W 061°32'0 0.0
2017-Sep-17 09:55N 16°12' W 061°32'0 0.0
2017-Sep-17 09:28N 16°12' W 061°32'0 0.0
2017-Sep-17 08:58N 16°12' W 061°32'0 0.0
2017-Sep-17 08:28N 16°12' W 061°32'0 0.0
2017-Sep-17 07:52N 16°12' W 061°32'0 0.0
2017-Sep-17 07:22N 16°12' W 061°32'0 0.0
2017-Sep-17 06:37N 16°12' W 061°32'0 0.0
2017-Sep-17 06:28N 16°12' W 061°32'0 0.0
2017-Sep-17 05:58N 16°12' W 061°32'0 0.0
2017-Sep-17 05:25N 16°12' W 061°32'0 0.0
2017-Sep-17 04:58N 16°12' W 061°32'0 0.0
2017-Sep-17 04:28N 16°12' W 061°32'0 0.0
2017-Sep-17 03:58N 16°12' W 061°32'0 0.0
2017-Sep-17 03:28N 16°12' W 061°32'0 0.0
2017-Sep-17 01:43N 16°12' W 061°32'0 0.0
2017-Sep-17 01:25N 16°12' W 061°32'0 0.0
2017-Sep-17 00:58N 16°12' W 061°32'0 0.0
2017-Sep-16 10:43N 16°12' W 061°32'0 0.0
2017-Sep-16 10:22N 16°12' W 061°32'0 0.0
2017-Sep-16 06:22N 16°12' W 061°32'0 0.0
2017-Sep-16 05:37N 16°12' W 061°32'0 0.0
2017-Sep-16 05:25N 16°12' W 061°32'0 0.0
2017-Sep-15 08:47N 16°12' W 061°32'0 0.2
2017-Sep-15 08:30N 16°12' W 061°32'3 6.1
2017-Sep-15 08:00N 16°09' W 061°32'8511.3
2017-Sep-15 00:29N 14°45' W 061°26'612.2
2017-Sep-15 00:00N 14°39' W 061°26'612.5
2017-Sep-14 23:29N 14°32' W 061°26'  

Dump ship's entire track history